Time;durP1;ratioP1;P1;durP2;ratioP2;P2;SDS_P1;SDS_P2;PMS_P1;PMS_P2;Temp;Humidity;BMP_temperature;BMP_pressure;BME280_temperature;BME280_humidity;BME280_pressure;Samples;Min_cycle;Max_cycle;Signal;HPM_P1;HPM_P2
2021/06/10 00:00:36;;;;;;;8.70;7.70;;;;;;;21.01;100.00;100849.78;4906015;29;20116;-76
2021/06/10 00:03:22;;;;;;;8.60;7.35;;;;;;;20.68;100.00;100849.88;4918086;29;20042;-75
2021/06/10 00:06:07;;;;;;;11.57;7.75;;;;;;;20.85;100.00;100854.25;4919199;29;20027;-75
2021/06/10 00:08:53;;;;;;;10.73;7.38;;;;;;;21.00;100.00;100842.72;4918887;29;20111;-76
2021/06/10 00:11:39;;;;;;;10.18;7.97;;;;;;;21.03;100.00;100846.06;4905565;29;20413;-76
2021/06/10 00:14:25;;;;;;;11.65;7.25;;;;;;;21.67;100.00;100841.28;4919149;29;20031;-76
2021/06/10 00:17:11;;;;;;;8.20;7.40;;;;;;;21.57;100.00;100836.59;4919275;29;20422;-76
2021/06/10 00:19:58;;;;;;;9.50;7.25;;;;;;;21.69;100.00;100834.03;4919275;29;20438;-76
2021/06/10 00:22:44;;;;;;;8.70;6.32;;;;;;;22.08;100.00;100831.63;4918142;29;20141;-76
2021/06/10 00:25:31;;;;;;;7.32;6.63;;;;;;;21.86;100.00;100836.56;4907075;29;20104;-76
2021/06/10 00:28:16;;;;;;;10.38;6.85;;;;;;;21.94;100.00;100833.44;4919369;29;20051;-76
2021/06/10 00:31:03;;;;;;;7.57;6.20;;;;;;;22.13;100.00;100841.97;4919095;29;20118;-76
2021/06/10 00:33:49;;;;;;;10.15;6.57;;;;;;;22.00;100.00;100838.38;4919044;29;20028;-76
2021/06/10 00:36:35;;;;;;;7.60;6.03;;;;;;;21.95;100.00;100833.31;4919812;29;20047;-76
2021/06/10 00:39:20;;;;;;;7.88;6.25;;;;;;;21.72;100.00;100833.91;4906523;29;20034;-76
2021/06/10 00:42:07;;;;;;;6.80;6.20;;;;;;;21.61;100.00;100830.13;4919010;29;20559;-76
2021/06/10 00:44:54;;;;;;;6.68;5.90;;;;;;;21.84;100.00;100819.81;4918627;29;20366;-76
2021/06/10 00:47:42;;;;;;;9.02;5.97;;;;;;;22.10;100.00;100816.34;4918534;29;20042;-76
2021/06/10 00:50:33;;;;;;;9.32;5.78;;;;;;;22.16;100.00;100817.78;4918693;29;20063;-76
2021/06/10 00:53:22;;;;;;;6.97;5.88;;;;;;;22.17;100.00;100809.69;4918766;29;20039;-76
2021/06/10 00:56:07;;;;;;;8.52;5.75;;;;;;;22.07;100.00;100813.88;4906436;29;20051;-76
2021/06/10 00:58:54;;;;;;;8.55;6.40;;;;;;;22.23;100.00;100803.09;4917934;29;20032;-76
2021/06/10 01:01:39;;;;;;;7.95;6.13;;;;;;;22.13;100.00;100800.16;4904885;29;20024;-76
2021/06/10 01:04:26;;;;;;;7.78;6.07;;;;;;;22.06;100.00;100809.50;4918449;29;20052;-76
2021/06/10 01:07:24;;;;;;;6.43;5.75;;;;;;;22.02;100.00;100804.47;4919186;29;20107;-76
2021/06/10 01:10:26;;;;;;;6.43;5.60;;;;;;;22.18;100.00;100807.88;4918511;29;20111;-76
2021/06/10 01:13:22;;;;;;;10.75;6.22;;;;;;;22.17;100.00;100808.81;4918694;29;20042;-76
2021/06/10 01:16:11;;;;;;;7.30;5.60;;;;;;;22.24;100.00;100804.81;4903956;29;20040;-76
2021/06/10 01:19:07;;;;;;;6.95;5.82;;;;;;;22.02;100.00;100802.63;4918507;29;20039;-76
2021/06/10 01:21:57;;;;;;;8.30;5.70;;;;;;;21.81;100.00;100797.78;4919129;29;20024;-76
2021/06/10 01:25:06;;;;;;;13.73;5.65;;;;;;;22.11;100.00;100796.69;4905052;29;20039;-76
2021/06/10 01:27:56;;;;;;;9.05;5.53;;;;;;;22.31;100.00;100796.28;4918548;29;20111;-75
2021/06/10 01:30:47;;;;;;;7.97;5.60;;;;;;;22.16;100.00;100799.09;4918885;29;20068;-76
2021/06/10 01:33:40;;;;;;;8.07;5.35;;;;;;;21.98;100.00;100809.13;4904740;29;20043;-76
2021/06/10 01:36:36;;;;;;;6.25;5.57;;;;;;;22.03;100.00;100811.50;4904895;29;20497;-75
2021/06/10 01:39:27;;;;;;;9.85;5.35;;;;;;;22.41;100.00;100807.25;4918682;29;20032;-76
2021/06/10 01:42:14;;;;;;;8.40;5.57;;;;;;;22.47;100.00;100804.22;4904815;29;20355;-76
2021/06/10 01:45:00;;;;;;;5.85;5.25;;;;;;;22.29;100.00;100806.22;4917643;29;20461;-76
2021/06/10 01:47:47;;;;;;;7.82;5.25;;;;;;;22.12;100.00;100801.13;4918117;29;20470;-76
2021/06/10 01:50:33;;;;;;;6.78;5.68;;;;;;;22.25;100.00;100804.69;4918212;29;20095;-76
2021/06/10 01:53:21;;;;;;;7.07;6.13;;;;;;;22.09;100.00;100795.97;4904354;29;20028;-76
2021/06/10 01:56:08;;;;;;;6.60;6.00;;;;;;;22.19;100.00;100799.75;4918453;29;20023;-76
2021/06/10 01:58:55;;;;;;;7.53;6.68;;;;;;;22.18;100.00;100800.72;4918010;29;20047;-75
2021/06/10 02:01:42;;;;;;;8.32;7.00;;;;;;;21.84;100.00;100810.94;4904358;29;20043;-76
2021/06/10 02:04:29;;;;;;;9.25;6.80;;;;;;;21.60;100.00;100807.06;4917924;29;20048;-76
2021/06/10 02:07:15;;;;;;;8.35;6.75;;;;;;;21.36;100.00;100814.75;4918209;29;20080;-76
2021/06/10 02:10:02;;;;;;;15.32;7.45;;;;;;;21.47;100.00;100817.66;4917334;29;20016;-76
2021/06/10 02:12:48;;;;;;;15.98;6.82;;;;;;;21.45;100.00;100810.66;4904235;29;20462;-75
2021/06/10 02:15:35;;;;;;;8.20;7.28;;;;;;;21.36;100.00;100809.44;4917592;29;20028;-76
2021/06/10 02:18:21;;;;;;;8.70;7.20;;;;;;;21.10;100.00;100818.09;4918571;29;20028;-76
2021/06/10 02:21:10;;;;;;;7.65;6.88;;;;;;;21.25;100.00;100814.53;4917959;29;20423;-76
2021/06/10 02:23:55;;;;;;;9.25;8.30;;;;;;;21.11;100.00;100814.50;4918322;29;20095;-75
2021/06/10 02:26:42;;;;;;;10.07;8.18;;;;;;;21.11;100.00;100817.19;4918156;29;20024;-75
2021/06/10 02:29:28;;;;;;;12.35;7.68;;;;;;;21.09;100.00;100815.56;4907269;29;20369;-76
2021/06/10 02:32:14;;;;;;;9.07;7.63;;;;;;;21.19;100.00;100822.03;4920505;29;20031;-75
2021/06/10 02:35:08;;;;;;;8.88;7.38;;;;;;;20.78;100.00;100815.59;4919995;29;20036;-75
2021/06/10 02:37:58;;;;;;;8.55;7.47;;;;;;;21.05;100.00;100822.84;4921524;29;20028;-76
2021/06/10 02:40:48;;;;;;;12.27;7.50;;;;;;;20.79;100.00;100818.16;4920972;29;20054;-76
2021/06/10 02:43:34;;;;;;;10.95;7.70;;;;;;;20.25;100.00;100821.25;4921245;29;20354;-76
2021/06/10 02:46:21;;;;;;;8.07;6.95;;;;;;;20.95;100.00;100823.47;4907347;29;20043;-75
2021/06/10 02:49:09;;;;;;;16.23;7.53;;;;;;;20.88;100.00;100820.28;4921300;29;20131;-75
2021/06/10 02:51:55;;;;;;;8.05;6.97;;;;;;;21.09;100.00;100819.06;4921224;29;20035;-76
2021/06/10 02:54:43;;;;;;;13.23;7.63;;;;;;;20.79;100.00;100819.97;4907193;29;20032;-76
2021/06/10 02:57:30;;;;;;;11.80;7.90;;;;;;;20.94;100.00;100827.94;4907357;29;20028;-75
2021/06/10 03:00:18;;;;;;;9.35;7.35;;;;;;;20.89;100.00;100826.50;4907206;29;20120;-76
2021/06/10 03:03:05;;;;;;;12.25;7.28;;;;;;;20.78;100.00;100829.75;4921107;29;20036;-76
2021/06/10 03:05:51;;;;;;;10.70;7.35;;;;;;;21.04;100.00;100829.13;4921151;29;20048;-75
2021/06/10 03:08:38;;;;;;;11.75;7.00;;;;;;;20.59;100.00;100825.56;4907113;29;20032;-75
2021/06/10 03:11:24;;;;;;;9.88;7.40;;;;;;;20.53;100.00;100833.91;4922247;29;20024;-75
2021/06/10 03:14:11;;;;;;;10.88;8.18;;;;;;;20.75;100.00;100831.72;4921947;29;20063;-75
2021/06/10 03:16:58;;;;;;;11.32;7.75;;;;;;;21.22;100.00;100828.03;4908032;29;20477;-75
2021/06/10 03:19:44;;;;;;;10.23;7.43;;;;;;;21.65;100.00;100839.66;4921277;29;20059;-76
2021/06/10 03:22:30;;;;;;;10.18;7.13;;;;;;;21.90;100.00;100834.56;4920811;29;20358;-76
2021/06/10 03:25:16;;;;;;;10.77;7.75;;;;;;;21.64;100.00;100844.13;4922533;29;20043;-76
2021/06/10 03:28:04;;;;;;;9.48;7.20;;;;;;;21.20;100.00;100834.41;4923058;29;20032;-75
2021/06/10 03:30:50;;;;;;;10.35;7.40;;;;;;;21.74;100.00;100841.81;4910591;29;20024;-75
2021/06/10 03:33:36;;;;;;;9.50;7.05;;;;;;;21.72;100.00;100838.38;4922209;29;20039;-76
2021/06/10 03:36:23;;;;;;;10.88;7.43;;;;;;;21.58;100.00;100841.84;4921919;29;20036;-76
2021/06/10 03:39:10;;;;;;;13.95;7.05;;;;;;;21.01;100.00;100845.28;4922244;29;20024;-76
2021/06/10 03:41:59;;;;;;;11.93;6.78;;;;;;;20.78;100.00;100844.88;4921257;29;20049;-76
2021/06/10 03:44:46;;;;;;;8.73;6.88;;;;;;;20.81;100.00;100847.38;4920128;29;20024;-76
2021/06/10 03:47:32;;;;;;;11.63;7.60;;;;;;;20.93;100.00;100841.38;4906179;29;20072;-76
2021/06/10 03:50:18;;;;;;;12.27;7.05;;;;;;;21.65;100.00;100842.31;4906378;29;20064;-76
2021/06/10 03:53:05;;;;;;;8.70;7.07;;;;;;;22.04;100.00;100840.75;4919648;29;20126;-76
2021/06/10 03:55:51;;;;;;;12.02;7.07;;;;;;;21.81;100.00;100844.00;4919902;29;20039;-76
2021/06/10 03:58:37;;;;;;;15.07;8.75;;;;;;;22.31;100.00;100846.19;4918903;29;20385;-76
2021/06/10 04:01:23;;;;;;;14.32;7.53;;;;;;;22.25;100.00;100842.09;4919172;29;20039;-76
2021/06/10 04:04:09;;;;;;;11.95;8.13;;;;;;;22.16;100.00;100850.69;4919350;29;20056;-76
2021/06/10 04:06:57;;;;;;;11.23;7.03;;;;;;;22.14;100.00;100849.91;4920332;29;20028;-76
2021/06/10 04:09:42;;;;;;;14.98;8.23;;;;;;;21.82;100.00;100859.03;4919688;29;20036;-76
2021/06/10 04:12:28;;;;;;;9.13;7.88;;;;;;;21.77;100.00;100857.59;4919881;29;20183;-76
2021/06/10 04:15:15;;;;;;;11.75;8.48;;;;;;;21.87;100.00;100851.59;4919225;29;20086;-76
2021/06/10 04:18:01;;;;;;;10.82;8.27;;;;;;;22.08;100.00;100852.97;4920418;29;20070;-76
2021/06/10 04:20:48;;;;;;;10.02;7.85;;;;;;;21.98;100.00;100856.31;4905893;29;20095;-76
2021/06/10 04:23:34;;;;;;;9.18;7.82;;;;;;;22.01;100.00;100856.09;4905436;29;20039;-75
2021/06/10 04:26:20;;;;;;;12.27;8.40;;;;;;;22.07;100.00;100853.91;4919658;29;20462;-76
2021/06/10 04:29:06;;;;;;;9.15;8.02;;;;;;;22.03;100.00;100852.38;4906537;29;20047;-77
2021/06/10 04:31:52;;;;;;;11.15;8.20;;;;;;;22.00;100.00;100857.06;4905728;29;20080;-76
2021/06/10 04:34:38;;;;;;;12.32;8.63;;;;;;;22.20;100.00;100859.34;4919194;29;20070;-75
2021/06/10 04:37:23;;;;;;;11.07;7.90;;;;;;;21.92;100.00;100857.53;4917838;29;20031;-77
2021/06/10 04:40:10;;;;;;;11.90;8.50;;;;;;;21.66;100.00;100857.38;4904943;29;20414;-76
2021/06/10 04:42:56;;;;;;;14.00;9.18;;;;;;;21.23;100.00;100855.56;4918420;29;20028;-76
2021/06/10 04:45:41;;;;;;;13.40;9.30;;;;;;;20.88;100.00;100860.25;4918994;29;20168;-75
2021/06/10 04:48:27;;;;;;;15.35;9.23;;;;;;;21.60;100.00;100868.41;4919177;29;20488;-75
2021/06/10 04:51:13;;;;;;;12.00;8.77;;;;;;;21.66;100.00;100866.22;4918907;29;20036;-76
2021/06/10 04:53:59;;;;;;;14.13;8.90;;;;;;;21.75;100.00;100867.53;4905180;29;20028;-76
2021/06/10 04:56:45;;;;;;;10.77;9.02;;;;;;;21.69;100.00;100874.06;4905527;29;20028;-76
2021/06/10 04:59:31;;;;;;;11.98;8.85;;;;;;;21.78;100.00;100865.50;4918621;29;20480;-76
2021/06/10 05:02:17;;;;;;;14.40;9.55;;;;;;;21.03;100.00;100870.06;4905651;29;20096;-75
2021/06/10 05:05:04;;;;;;;14.90;9.50;;;;;;;21.35;100.00;100871.69;4917648;29;20059;-76
2021/06/10 05:07:50;;;;;;;18.30;9.35;;;;;;;21.34;100.00;100869.97;4918967;29;20111;-76
2021/06/10 05:10:35;;;;;;;11.32;9.32;;;;;;;21.33;100.00;100873.59;4917832;29;20101;-76
2021/06/10 05:13:21;;;;;;;11.77;8.52;;;;;;;21.67;100.00;100870.63;4917597;29;20032;-75
2021/06/10 05:16:07;;;;;;;13.60;9.45;;;;;;;22.03;100.00;100867.53;4918345;29;20107;-76
2021/06/10 05:18:53;;;;;;;14.00;8.90;;;;;;;22.07;100.00;100867.22;4905435;29;20096;-76
2021/06/10 05:21:39;;;;;;;14.85;9.10;;;;;;;22.45;100.00;100872.84;4904464;29;20365;-76
2021/06/10 05:24:27;;;;;;;13.88;8.73;;;;;;;22.41;100.00;100877.53;4906131;29;20450;-76
2021/06/10 05:27:13;;;;;;;11.93;7.30;;;;;;;22.56;100.00;100875.72;4904368;29;20043;-76
2021/06/10 05:29:59;;;;;;;9.68;7.07;;;;;;;23.09;100.00;100881.09;4904886;29;20074;-77
2021/06/10 05:32:45;;;;;;;10.77;7.20;;;;;;;23.25;100.00;100889.84;4904797;29;20032;-76
2021/06/10 05:35:31;;;;;;;20.20;13.82;;;;;;;23.48;100.00;100890.00;4904334;29;20035;-77
2021/06/10 05:38:16;;;;;;;9.57;7.70;;;;;;;23.44;100.00;100890.31;4917522;29;20051;-76
2021/06/10 05:41:02;;;;;;;14.80;8.77;;;;;;;23.08;100.00;100890.06;4916732;29;20395;-76
2021/06/10 05:43:48;;;;;;;10.45;6.90;;;;;;;23.62;100.00;100897.09;4918580;29;20043;-77
2021/06/10 05:46:34;;;;;;;13.77;7.40;;;;;;;23.76;100.00;100889.00;4918629;29;20111;-77
2021/06/10 05:49:20;;;;;;;17.88;7.82;;;;;;;23.91;100.00;100889.75;4918346;29;20070;-76
2021/06/10 05:52:06;;;;;;;13.13;7.57;;;;;;;23.95;100.00;100889.44;4917269;29;20032;-77
2021/06/10 05:54:53;;;;;;;9.75;7.85;;;;;;;23.90;100.00;100890.72;4918389;29;20052;-76
2021/06/10 05:57:39;;;;;;;11.88;7.82;;;;;;;23.99;100.00;100893.59;4917889;29;20055;-76
2021/06/10 06:00:24;;;;;;;8.27;7.38;;;;;;;24.40;100.00;100882.66;4904107;29;20040;-77
2021/06/10 06:03:12;;;;;;;7.97;7.18;;;;;;;24.24;100.00;100892.75;4905278;29;20028;-75
2021/06/10 06:05:59;;;;;;;10.13;6.78;;;;;;;24.87;100.00;100896.19;4922095;29;20513;-76
2021/06/10 06:08:47;;;;;;;10.25;7.38;;;;;;;24.38;100.00;100898.84;4921827;29;20032;-76
2021/06/10 06:11:33;;;;;;;10.02;7.70;;;;;;;24.76;100.00;100888.06;4921731;29;20016;-75
2021/06/10 06:14:25;;;;;;;9.30;7.35;;;;;;;25.14;100.00;100900.34;4921450;29;20041;-75
2021/06/10 06:17:12;;;;;;;10.05;6.85;;;;;;;24.89;100.00;100894.22;4908933;29;20024;-75
2021/06/10 06:19:59;;;;;;;11.18;8.15;;;;;;;24.85;100.00;100901.66;4921256;29;20107;-74
2021/06/10 06:22:45;;;;;;;8.82;7.63;;;;;;;24.56;100.00;100908.25;4921488;29;20035;-75
2021/06/10 06:25:31;;;;;;;11.77;8.35;;;;;;;24.30;100.00;100911.09;4921293;29;20126;-76
2021/06/10 06:28:17;;;;;;;8.55;7.63;;;;;;;24.26;100.00;100915.78;4920440;29;20054;-75
2021/06/10 06:31:02;;;;;;;10.70;8.32;;;;;;;24.42;100.00;100911.06;4921843;29;20028;-75
2021/06/10 06:33:48;;;;;;;10.50;9.00;;;;;;;24.58;100.00;100914.34;4921093;29;20334;-75
2021/06/10 06:36:34;;;;;;;9.55;6.70;;;;;;;24.79;100.00;100911.97;4920148;29;20028;-74
2021/06/10 06:39:23;;;;;;;10.77;8.30;;;;;;;24.56;100.00;100916.28;4908148;29;20365;-77
2021/06/10 06:42:09;;;;;;;12.85;9.02;;;;;;;24.28;100.00;100924.56;4908982;29;20040;-76
2021/06/10 06:44:55;;;;;;;9.60;7.75;;;;;;;25.19;100.00;100921.47;4922811;29;20064;-77
2021/06/10 06:48:28;;;;;;;10.38;9.40;;;;;;;24.68;100.00;100918.13;4923545;29;20034;-78
2021/06/10 06:51:23;;;;;;;12.05;9.32;;;;;;;24.67;100.00;100926.28;4908461;29;20118;-78
2021/06/10 06:54:10;;;;;;;13.00;8.60;;;;;;;24.91;100.00;100921.81;4920997;29;20114;-77
2021/06/10 06:56:56;;;;;;;12.15;7.90;;;;;;;25.43;100.00;100923.19;4907576;29;20028;-76
2021/06/10 06:59:41;;;;;;;9.23;8.27;;;;;;;25.77;100.00;100926.84;4907617;29;20036;-77
2021/06/10 07:02:34;;;;;;;12.70;9.57;;;;;;;25.10;100.00;100919.47;4921255;29;20130;-78
2021/06/10 07:05:20;;;;;;;9.82;8.93;;;;;;;25.02;100.00;100925.41;4920605;29;20070;-76
2021/06/10 07:08:06;;;;;;;11.60;9.80;;;;;;;24.83;100.00;100916.16;4919637;29;20090;-75
2021/06/10 07:10:55;;;;;;;13.43;10.15;;;;;;;25.19;100.00;100926.84;4920840;29;20091;-76
2021/06/10 07:13:41;;;;;;;15.82;9.32;;;;;;;24.93;100.00;100926.06;4919823;29;20032;-76
2021/06/10 07:16:27;;;;;;;11.07;8.90;;;;;;;25.30;100.00;100926.91;4919444;29;20048;-76
2021/06/10 07:19:13;;;;;;;13.10;8.57;;;;;;;25.57;100.00;100933.75;4906589;29;20566;-76
2021/06/10 07:21:58;;;;;;;11.77;9.02;;;;;;;26.06;100.00;100938.91;4920732;29;20060;-76
2021/06/10 07:24:46;;;;;;;14.02;9.23;;;;;;;25.84;100.00;100933.47;4920381;29;20410;-76
2021/06/10 07:27:32;;;;;;;11.23;7.88;;;;;;;26.56;100.00;100942.00;4920367;29;20111;-76
2021/06/10 07:30:21;;;;;;;10.68;7.97;;;;;;;25.85;100.00;100946.78;4906146;29;20095;-75
2021/06/10 07:33:07;;;;;;;10.98;7.85;;;;;;;25.93;100.00;100948.88;4919330;29;20482;-75
2021/06/10 07:35:53;;;;;;;10.10;7.70;;;;;;;26.37;100.00;100949.81;4920037;29;20035;-75
2021/06/10 07:38:38;;;;;;;9.88;7.80;;;;;;;25.46;100.00;100948.94;4920189;29;20110;-75
2021/06/10 07:41:24;;;;;;;12.90;7.78;;;;;;;25.92;100.00;100947.16;4919790;29;20099;-76
2021/06/10 07:44:16;;;;;;;13.40;7.22;;;;;;;25.27;100.00;100943.22;4920433;29;20027;-75
2021/06/10 07:47:02;;;;;;;10.52;7.60;;;;;;;25.49;100.00;100948.72;4918949;29;20039;-75
2021/06/10 07:49:49;;;;;;;10.43;7.45;;;;;;;25.80;100.00;100948.09;4907154;29;20032;-76
2021/06/10 07:52:35;;;;;;;10.55;7.05;;;;;;;26.15;100.00;100952.47;4920325;29;20048;-76
2021/06/10 07:55:21;;;;;;;9.98;6.57;;;;;;;27.18;100.00;100953.06;4919825;29;20465;-75
2021/06/10 07:58:07;;;;;;;8.20;6.63;;;;;;;27.28;100.00;100956.72;4907292;29;20040;-75
2021/06/10 08:00:56;;;;;;;11.30;7.15;;;;;;;27.60;100.00;100954.06;4921844;29;20111;-78
2021/06/10 08:03:45;;;;;;;11.65;8.38;;;;;;;27.75;100.00;100966.22;4920505;29;20056;-75
2021/06/10 08:06:32;;;;;;;11.25;6.60;;;;;;;29.24;99.97;100959.22;4905733;29;20355;-75
2021/06/10 08:09:18;;;;;;;9.00;6.28;;;;;;;29.55;94.14;100960.81;4918841;29;20107;-75
2021/06/10 08:12:04;;;;;;;10.57;6.38;;;;;;;29.42;94.08;100958.44;4919360;29;20027;-75
2021/06/10 08:14:50;;;;;;;10.43;6.40;;;;;;;28.98;99.01;100947.22;4919418;29;20414;-75
2021/06/10 08:17:36;;;;;;;7.82;6.00;;;;;;;29.90;92.13;100951.16;4918648;29;20477;-75
2021/06/10 08:20:22;;;;;;;9.98;5.93;;;;;;;30.14;87.11;100951.59;4919080;29;20024;-75
2021/06/10 08:23:08;;;;;;;8.38;5.78;;;;;;;29.91;88.38;100957.44;4905297;29;20182;-76
2021/06/10 08:25:57;;;;;;;6.80;5.50;;;;;;;30.62;82.67;100956.88;4905146;29;20429;-75
2021/06/10 08:28:43;;;;;;;7.55;5.82;;;;;;;30.26;77.85;100960.41;4905151;29;20442;-75
2021/06/10 08:31:29;;;;;;;10.88;5.55;;;;;;;29.85;80.65;100956.16;4904937;29;20032;-75
2021/06/10 08:34:15;;;;;;;7.70;5.28;;;;;;;29.23;84.72;100960.22;4906064;29;20032;-76
2021/06/10 08:37:01;;;;;;;10.05;6.22;;;;;;;28.69;92.34;100962.47;4918540;29;20099;-76
2021/06/10 08:39:46;;;;;;;6.20;5.60;;;;;;;27.89;95.64;100953.34;4918798;29;20114;-76
2021/06/10 08:42:37;;;;;;;10.50;6.20;;;;;;;28.26;95.33;100957.25;4919286;29;20520;-76
2021/06/10 08:45:27;;;;;;;9.60;5.80;;;;;;;27.46;96.58;100949.84;4919449;29;20036;-74
2021/06/10 08:48:14;;;;;;;10.95;6.22;;;;;;;27.17;100.00;100956.75;4919232;29;20083;-76
2021/06/10 08:51:00;;;;;;;12.15;6.00;;;;;;;27.29;100.00;100959.28;4919296;29;20024;-75
2021/06/10 08:53:46;;;;;;;9.40;6.28;;;;;;;26.87;100.00;100962.78;4905076;29;20118;-75
2021/06/10 08:56:33;;;;;;;9.02;6.47;;;;;;;27.43;100.00;100961.72;4904335;29;20103;-76
2021/06/10 08:59:19;;;;;;;8.95;6.18;;;;;;;26.91;100.00;100960.69;4917181;29;20036;-76
2021/06/10 09:02:05;;;;;;;15.07;8.10;;;;;;;27.36;100.00;100956.94;4904230;29;20020;-75
2021/06/10 09:04:51;;;;;;;11.15;9.32;;;;;;;27.17;100.00;100952.22;4905591;29;20107;-75
2021/06/10 09:07:39;;;;;;;7.70;6.82;;;;;;;27.29;100.00;100964.69;4918424;29;20028;-75
2021/06/10 09:10:28;;;;;;;7.00;6.30;;;;;;;27.18;100.00;100963.84;4904572;29;20028;-76
2021/06/10 09:13:14;;;;;;;9.05;5.90;;;;;;;27.49;100.00;100968.44;4905018;29;20028;-75
2021/06/10 09:16:15;;;;;;;11.85;6.25;;;;;;;27.76;100.00;100970.63;4904574;29;20027;-75
2021/06/10 09:19:08;;;;;;;7.43;6.07;;;;;;;28.39;100.00;100974.06;4904739;29;20047;-76
2021/06/10 09:21:54;;;;;;;9.43;6.05;;;;;;;28.75;97.17;100970.00;4918137;29;20351;-75
2021/06/10 09:24:41;;;;;;;7.82;6.55;;;;;;;29.08;94.63;100959.78;4905859;29;20038;-77
2021/06/10 09:27:27;;;;;;;10.25;6.55;;;;;;;29.53;89.61;100966.38;4904837;29;20036;-76
2021/06/10 09:30:27;;;;;;;9.25;5.90;;;;;;;29.68;90.28;100967.69;4918871;29;20024;-76
2021/06/10 09:33:19;;;;;;;8.90;5.60;;;;;;;29.23;87.50;100962.94;4904694;29;20036;-76
2021/06/10 09:36:08;;;;;;;9.75;6.28;;;;;;;28.63;90.49;100968.38;4904575;29;20024;-76
2021/06/10 09:39:05;;;;;;;11.90;5.75;;;;;;;28.99;91.35;100954.31;4904046;29;20028;-76
2021/06/10 09:42:04;;;;;;;8.50;5.50;;;;;;;29.02;88.83;100954.09;4907027;29;20083;-76
2021/06/10 09:44:54;;;;;;;6.85;5.60;;;;;;;28.92;90.26;100959.41;4919568;29;20048;-76
2021/06/10 09:47:46;;;;;;;10.57;6.00;;;;;;;29.21;88.75;100954.97;4906512;29;20036;-76
2021/06/10 09:50:52;;;;;;;8.60;5.72;;;;;;;29.77;87.01;100944.38;4905739;29;20131;-76
2021/06/10 09:53:38;;;;;;;7.95;5.93;;;;;;;29.71;87.62;100945.81;4904173;29;20032;-76
2021/06/10 09:56:24;;;;;;;7.57;5.70;;;;;;;29.35;83.64;100945.59;4905321;29;20059;-75
2021/06/10 09:59:10;;;;;;;7.45;6.20;;;;;;;29.49;85.83;100937.94;4907905;29;20115;-74
2021/06/10 10:02:21;;;;;;;9.30;5.65;;;;;;;29.66;84.67;100937.25;4908088;29;20020;-76
2021/06/10 10:05:10;;;;;;;7.55;6.10;;;;;;;29.15;84.94;100938.47;4907191;29;20147;-75
2021/06/10 10:07:56;;;;;;;8.05;5.65;;;;;;;29.23;84.15;100927.84;4918529;29;20036;-76
2021/06/10 10:10:43;;;;;;;9.02;6.00;;;;;;;28.93;86.02;100926.03;4917884;29;20111;-76
2021/06/10 10:13:31;;;;;;;6.80;5.75;;;;;;;28.98;86.27;100921.09;4917665;29;20472;-75
2021/06/10 10:16:24;;;;;;;7.13;5.72;;;;;;;29.40;85.90;100921.72;4904029;29;20111;-75
2021/06/10 10:19:10;;;;;;;7.95;6.03;;;;;;;28.40;89.04;100924.53;4917933;29;20087;-75
2021/06/10 10:21:56;;;;;;;6.70;5.57;;;;;;;28.89;88.79;100916.50;4904252;29;20052;-76
2021/06/10 10:24:42;;;;;;;9.35;5.90;;;;;;;29.28;86.99;100921.03;4917927;29;20118;-76
2021/06/10 10:27:28;;;;;;;6.75;5.50;;;;;;;29.35;87.34;100916.78;4904005;29;20035;-76
2021/06/10 10:30:16;;;;;;;7.13;5.60;;;;;;;29.40;86.99;100913.63;4904250;29;20426;-75
2021/06/10 10:33:18;;;;;;;7.90;5.45;;;;;;;28.70;87.07;100913.78;4918134;29;20103;-75
2021/06/10 10:36:04;;;;;;;6.05;5.45;;;;;;;28.62;89.97;100910.06;4904224;29;20123;-75
2021/06/10 10:39:03;;;;;;;6.53;5.80;;;;;;;27.95;93.90;100907.00;4918282;29;20513;-76
2021/06/10 10:41:51;;;;;;;9.15;5.88;;;;;;;28.22;94.97;100903.75;4917202;29;20119;-76
2021/06/10 10:44:38;;;;;;;8.30;6.00;;;;;;;28.06;97.34;100898.84;4904400;29;20362;-76
2021/06/10 10:47:40;;;;;;;9.77;6.72;;;;;;;28.40;98.09;100889.50;4916423;29;20120;-76
2021/06/10 10:50:39;;;;;;;6.97;5.40;;;;;;;28.16;92.84;100894.34;4920791;29;20134;-76
2021/06/10 10:53:27;;;;;;;9.80;5.50;;;;;;;28.10;92.94;100884.13;4920737;29;20032;-76
2021/06/10 10:56:13;;;;;;;8.07;5.57;;;;;;;28.19;95.50;100880.63;4920843;29;20036;-76
2021/06/10 10:59:41;;;;;;;6.22;5.47;;;;;;;28.08;89.30;100879.88;4920464;29;20035;-75
2021/06/10 11:02:28;;;;;;;6.32;5.43;;;;;;;28.62;85.83;100872.31;4895017;29;20040;-75
2021/06/10 11:05:28;;;;;;;8.07;5.78;;;;;;;28.76;84.65;100863.84;4906758;29;20056;-75
2021/06/10 11:08:14;;;;;;;7.13;5.88;;;;;;;29.19;86.15;100858.94;4920795;29;20024;-76
2021/06/10 11:11:02;;;;;;;7.55;5.43;;;;;;;29.30;82.03;100864.19;4920970;29;20376;-75
2021/06/10 11:13:49;;;;;;;7.38;5.72;;;;;;;28.93;80.60;100861.28;4920294;29;20074;-76
2021/06/10 11:17:13;;;;;;;10.15;5.65;;;;;;;29.23;81.01;100852.25;4920513;29;20493;-76
2021/06/10 11:20:07;;;;;;;9.32;6.05;;;;;;;29.26;83.37;100844.75;4907056;29;20107;-74
2021/06/10 11:23:13;;;;;;;8.50;5.70;;;;;;;28.96;86.20;100847.53;4906670;29;20032;-76
2021/06/10 11:26:03;;;;;;;8.60;5.57;;;;;;;28.68;89.22;100848.31;4920668;29;20042;-76
2021/06/10 11:29:00;;;;;;;7.90;5.53;;;;;;;29.10;84.80;100838.19;4920205;29;20029;-75
2021/06/10 11:32:20;;;;;;;8.73;5.80;;;;;;;28.88;79.12;100831.19;4920484;29;20039;-77
2021/06/10 11:35:06;;;;;;;8.35;5.60;;;;;;;28.77;77.36;100830.47;4920718;29;20032;-77
2021/06/10 11:37:55;;;;;;;11.23;9.90;;;;;;;28.96;76.84;100833.16;4920200;29;20028;-76
2021/06/10 11:40:44;;;;;;;7.70;5.65;;;;;;;28.84;77.01;100831.59;4920295;29;20036;-77
2021/06/10 11:43:31;;;;;;;6.47;5.60;;;;;;;28.56;73.09;100832.44;4919436;29;20028;-75
2021/06/10 11:46:19;;;;;;;6.72;5.28;;;;;;;28.58;71.20;100831.28;4920265;29;20101;-75
2021/06/10 11:49:07;;;;;;;10.52;6.63;;;;;;;29.00;72.68;100832.78;4920816;29;20111;-77
2021/06/10 11:51:53;;;;;;;7.53;5.57;;;;;;;28.60;69.64;100828.47;4919521;29;20024;-76
2021/06/10 11:55:06;;;;;;;6.43;5.30;;;;;;;28.51;68.54;100822.03;4920239;29;20024;-76
2021/06/10 11:57:54;;;;;;;7.13;5.32;;;;;;;29.52;66.10;100823.38;4919431;29;20377;-76
2021/06/10 12:00:42;;;;;;;13.00;6.35;;;;;;;29.45;68.17;100815.00;4919143;29;20078;-76
2021/06/10 12:03:34;;;;;;;7.05;5.47;;;;;;;29.40;68.05;100819.13;4919054;29;20028;-75
2021/06/10 12:06:33;;;;;;;10.52;5.68;;;;;;;28.96;74.51;100806.19;4921028;29;20024;-78
2021/06/10 12:09:19;;;;;;;7.53;5.68;;;;;;;29.10;69.81;100811.22;4906325;29;20192;-76
2021/06/10 12:12:05;;;;;;;7.50;5.63;;;;;;;29.32;72.22;100810.91;4918364;29;20024;-76
2021/06/10 12:14:51;;;;;;;10.75;5.93;;;;;;;29.18;71.22;100812.22;4906183;29;20032;-77
2021/06/10 12:17:54;;;;;;;6.50;5.80;;;;;;;29.12;72.60;100806.50;4906067;29;20492;-77
2021/06/10 12:20:45;;;;;;;15.77;10.32;;;;;;;28.91;72.34;100801.25;4919650;29;20040;-76
2021/06/10 12:23:44;;;;;;;10.10;7.78;;;;;;;29.58;72.88;100802.06;4918115;29;20092;-77
2021/06/10 12:26:30;;;;;;;8.95;5.00;;;;;;;29.98;63.86;100782.91;4906144;29;20039;-77
2021/06/10 12:29:16;;;;;;;8.38;5.05;;;;;;;29.27;62.37;100775.41;4919366;29;20050;-76
2021/06/10 12:32:02;;;;;;;6.55;5.78;;;;;;;29.80;63.90;100763.06;4918892;29;20525;-76
2021/06/10 12:34:56;;;;;;;8.05;5.97;;;;;;;30.03;64.20;100775.19;4919609;29;20042;-77
2021/06/10 12:37:42;;;;;;;6.70;6.00;;;;;;;29.04;68.68;100774.84;4919029;29;20043;-76
2021/06/10 12:40:47;;;;;;;10.15;6.13;;;;;;;29.19;69.93;100789.63;4917982;29;20394;-77
2021/06/10 12:43:33;;;;;;;10.55;5.80;;;;;;;28.72;71.43;100779.63;4919295;29;20032;-76
2021/06/10 12:46:21;;;;;;;6.45;5.82;;;;;;;28.59;74.65;100781.75;4918950;29;20100;-75
2021/06/10 12:49:43;;;;;;;7.90;6.10;;;;;;;28.24;87.76;100783.22;4920423;29;20047;-78
2021/06/10 12:52:34;;;;;;;7.45;5.97;;;;;;;28.28;89.25;100784.66;4843111;29;20057;-76
2021/06/10 12:55:27;;;;;;;9.18;5.35;;;;;;;28.14;91.61;100779.63;4919182;29;20453;-75